Time;durP1;ratioP1;P1;durP2;ratioP2;P2;SDS_P1;SDS_P2;PMS_P1;PMS_P2;Temp;Humidity;BMP_temperature;BMP_pressure;BME280_temperature;BME280_humidity;BME280_pressure;Samples;Min_cycle;Max_cycle;Signal;HPM_P1;HPM_P2
2021/01/17 00:02:09;;;;;;;24.17;12.73;;;;;;;-3.72;89.45;101947.78;4943211;28;20040;-80
2021/01/17 00:04:35;;;;;;;24.38;12.70;;;;;;;-3.75;89.88;101942.69;4920280;29;20061;-80
2021/01/17 00:07:01;;;;;;;26.92;13.88;;;;;;;-3.74;89.17;101936.72;4970239;28;20402;-79
2021/01/17 00:09:26;;;;;;;31.40;14.13;;;;;;;-3.71;89.62;101944.38;4971209;28;20039;-77
2021/01/17 00:11:51;;;;;;;24.45;12.68;;;;;;;-3.71;88.79;101936.66;4947690;28;20039;-77
2021/01/17 00:14:17;;;;;;;30.15;13.98;;;;;;;-3.65;88.10;101925.47;4914989;29;20070;-77
2021/01/17 00:16:43;;;;;;;30.10;13.88;;;;;;;-3.67;88.07;101919.47;4958030;28;20038;-78
2021/01/17 00:19:08;;;;;;;28.52;13.75;;;;;;;-3.71;88.73;101911.03;4937492;29;20048;-80
2021/01/17 00:21:34;;;;;;;27.73;13.45;;;;;;;-3.74;88.30;101914.47;4936159;29;20047;-78
2021/01/17 00:24:00;;;;;;;28.10;13.60;;;;;;;-3.70;88.99;101922.97;4931834;29;20489;-78
2021/01/17 00:26:25;;;;;;;29.88;13.80;;;;;;;-3.67;88.47;101920.34;4952769;28;20047;-75
2021/01/17 00:28:51;;;;;;;26.35;14.15;;;;;;;-3.72;88.32;101920.41;4954742;28;20058;-77
2021/01/17 00:31:16;;;;;;;26.80;13.70;;;;;;;-3.75;88.63;101910.22;4949487;29;20102;-81
2021/01/17 00:33:41;;;;;;;26.48;13.80;;;;;;;-3.70;88.51;101904.16;4940714;28;20563;-77
2021/01/17 00:36:07;;;;;;;26.20;13.32;;;;;;;-3.68;88.59;101910.13;4952427;28;20075;-77
2021/01/17 00:38:33;;;;;;;29.27;14.60;;;;;;;-3.74;88.26;101911.06;4936902;29;20068;-77
2021/01/17 00:40:58;;;;;;;26.88;13.63;;;;;;;-3.75;88.25;101906.78;4952271;28;20118;-78
2021/01/17 00:43:23;;;;;;;27.05;13.27;;;;;;;-3.71;88.95;101911.03;4962635;28;20030;-76
2021/01/17 00:45:49;;;;;;;27.52;13.20;;;;;;;-3.72;89.22;101914.44;4941370;28;20102;-76
2021/01/17 00:48:14;;;;;;;27.35;14.25;;;;;;;-3.73;88.98;101902.47;4922646;29;20055;-76
2021/01/17 00:50:40;;;;;;;29.10;14.15;;;;;;;-3.72;88.48;101894.78;4956773;29;20489;-77
2021/01/17 00:53:07;;;;;;;25.10;13.43;;;;;;;-3.66;88.40;101901.50;4944258;28;20031;-77
2021/01/17 00:55:38;;;;;;;26.58;13.73;;;;;;;-3.63;88.57;101904.03;4976700;28;20754;-79
2021/01/17 00:58:11;;;;;;;27.15;13.73;;;;;;;-3.63;88.97;101904.03;4937555;29;20040;-79
2021/01/17 01:00:37;;;;;;;23.00;12.90;;;;;;;-3.65;88.97;101897.25;4924248;29;20043;-80
2021/01/17 01:03:09;;;;;;;27.73;14.05;;;;;;;-3.64;89.58;101901.50;4961912;28;20093;-78
2021/01/17 01:05:35;;;;;;;28.65;12.77;;;;;;;-3.63;90.05;101910.91;4954244;28;20032;-78
2021/01/17 01:08:05;;;;;;;27.05;14.27;;;;;;;-3.60;89.70;101903.13;4967585;28;20065;-79
2021/01/17 01:10:31;;;;;;;26.02;13.85;;;;;;;-3.61;89.55;101902.28;4960185;28;20109;-80
2021/01/17 01:12:56;;;;;;;24.05;13.52;;;;;;;-3.52;89.34;101897.00;4955297;28;20043;-78
2021/01/17 01:15:22;;;;;;;27.50;15.30;;;;;;;-3.58;89.47;101888.56;4952960;29;20111;-76
2021/01/17 01:17:47;;;;;;;24.92;13.30;;;;;;;-3.49;89.88;101903.78;4939291;29;20486;-77
2021/01/17 01:20:13;;;;;;;28.50;14.02;;;;;;;-3.38;89.38;101906.16;4906459;29;20497;-77
2021/01/17 01:22:43;;;;;;;23.15;12.93;;;;;;;-3.37;89.74;101910.41;4948047;29;20034;-76
2021/01/17 01:25:09;;;;;;;25.38;14.10;;;;;;;-3.39;88.88;101907.00;4948030;29;20534;-77
2021/01/17 01:27:35;;;;;;;26.50;13.90;;;;;;;-3.40;89.25;101906.19;4952377;29;20043;-77
2021/01/17 01:30:01;;;;;;;25.98;13.15;;;;;;;-3.39;89.33;101901.88;4925283;29;20040;-78
2021/01/17 01:32:27;;;;;;;26.23;14.35;;;;;;;-3.41;89.92;101899.38;4940682;28;20196;-75
2021/01/17 01:34:53;;;;;;;23.27;13.20;;;;;;;-3.34;89.31;101905.22;4965339;28;20035;-79
2021/01/17 01:37:18;;;;;;;26.67;14.25;;;;;;;-3.30;89.29;101906.00;4950864;29;20071;-77
2021/01/17 01:39:44;;;;;;;23.83;13.85;;;;;;;-3.26;88.74;101905.06;4942826;29;20035;-78
2021/01/17 01:42:09;;;;;;;29.75;14.60;;;;;;;-3.28;88.25;101897.41;4956255;28;20031;-78
2021/01/17 01:44:35;;;;;;;28.33;14.73;;;;;;;-3.24;87.63;101888.78;4929345;28;20101;-76
2021/01/17 01:47:02;;;;;;;28.38;14.55;;;;;;;-3.32;87.88;101888.91;4968427;28;20065;-79
2021/01/17 01:49:28;;;;;;;26.88;13.93;;;;;;;-3.39;88.32;101887.34;4952532;28;20047;-76
2021/01/17 01:51:56;;;;;;;29.70;15.50;;;;;;;-3.36;88.36;101894.97;4935646;29;20169;-78
2021/01/17 01:54:21;;;;;;;30.10;14.70;;;;;;;-3.35;88.35;101893.28;4949125;28;20031;-79
2021/01/17 01:56:52;;;;;;;30.00;15.48;;;;;;;-3.39;88.24;101892.50;4940758;29;20107;-80
2021/01/17 01:59:18;;;;;;;25.52;13.68;;;;;;;-3.38;88.21;101886.47;4942435;29;20048;-79
2021/01/17 02:01:44;;;;;;;28.73;14.90;;;;;;;-3.39;88.55;101887.34;4938185;29;20040;-78
2021/01/17 02:04:10;;;;;;;30.58;14.65;;;;;;;-3.37;88.44;101880.47;4951143;28;20161;-79
2021/01/17 02:06:49;;;;;;;28.30;14.20;;;;;;;-3.38;88.79;101876.19;4924519;29;20078;-78
2021/01/17 02:09:24;;;;;;;29.10;15.48;;;;;;;-3.32;88.72;101877.81;4921851;29;20055;-76
2021/01/17 02:12:11;;;;;;;28.48;14.77;;;;;;;-3.36;88.82;101873.63;4932086;28;20038;-79
2021/01/17 02:14:37;;;;;;;27.85;14.73;;;;;;;-3.36;89.08;101873.63;4945321;28;20114;-77
2021/01/17 02:17:06;;;;;;;28.58;15.05;;;;;;;-3.36;89.10;101879.59;4937704;29;20620;-79
2021/01/17 02:19:37;;;;;;;28.35;14.98;;;;;;;-3.31;89.13;101876.94;4923187;29;20410;-79
2021/01/17 02:22:03;;;;;;;29.95;15.70;;;;;;;-3.33;88.64;101873.56;4950053;29;20173;-79
2021/01/17 02:24:31;;;;;;;28.38;15.48;;;;;;;-3.31;88.71;101874.38;4942747;29;20039;-78
2021/01/17 02:26:57;;;;;;;26.73;13.95;;;;;;;-3.37;89.35;101870.22;4926958;29;20071;-77
2021/01/17 02:29:24;;;;;;;29.42;14.35;;;;;;;-3.34;89.49;101875.25;4958756;29;20138;-80
2021/01/17 02:31:50;;;;;;;32.03;16.95;;;;;;;-3.28;88.97;101868.34;4958325;28;20054;-78
2021/01/17 02:34:16;;;;;;;28.60;15.27;;;;;;;-3.24;88.68;101873.38;4961591;28;20031;-79
2021/01/17 02:36:59;;;;;;;29.83;15.68;;;;;;;-3.25;88.54;101874.25;4933159;28;20031;-77
2021/01/17 02:39:35;;;;;;;32.15;16.95;;;;;;;-3.22;88.88;101876.78;4926427;29;20039;-77
2021/01/17 02:42:03;;;;;;;30.25;15.75;;;;;;;-3.24;89.06;101875.97;4965500;28;20043;-76
2021/01/17 02:44:31;;;;;;;33.63;16.50;;;;;;;-3.26;88.90;101871.72;4976760;28;20520;-78
2021/01/17 02:46:56;;;;;;;31.88;16.77;;;;;;;-3.21;88.52;101869.91;4940129;29;20518;-77
2021/01/17 02:49:22;;;;;;;32.67;17.02;;;;;;;-3.21;89.15;101867.34;4946915;28;20117;-78
2021/01/17 02:51:48;;;;;;;32.75;15.85;;;;;;;-3.18;88.38;101869.84;4993106;28;20066;-75
2021/01/17 02:54:33;;;;;;;32.50;16.42;;;;;;;-3.15;88.81;101870.59;4940786;29;20125;-78
2021/01/17 02:57:05;;;;;;;30.73;15.68;;;;;;;-3.21;88.94;101873.31;4941952;29;20043;-77
2021/01/17 02:59:42;;;;;;;31.23;15.88;;;;;;;-3.22;89.19;101865.63;4950755;29;20074;-77
2021/01/17 03:02:08;;;;;;;29.98;16.65;;;;;;;-3.16;89.33;101868.94;4947862;28;20114;-76
2021/01/17 03:04:40;;;;;;;33.50;17.08;;;;;;;-3.13;88.87;101866.31;4956336;28;20412;-76
2021/01/17 03:07:09;;;;;;;31.67;15.50;;;;;;;-3.17;89.53;101869.81;4936871;29;20051;-76
2021/01/17 03:09:35;;;;;;;36.70;17.33;;;;;;;-3.18;89.16;101865.56;4920731;29;20044;-78
2021/01/17 03:12:05;;;;;;;32.78;16.98;;;;;;;-3.16;89.64;101871.50;4954417;28;20110;-76
2021/01/17 03:14:38;;;;;;;33.60;17.52;;;;;;;-3.17;88.96;101856.97;4963012;28;20043;-76
2021/01/17 03:17:07;;;;;;;34.72;16.67;;;;;;;-3.15;89.42;101868.03;4955131;29;20074;-77
2021/01/17 03:19:33;;;;;;;33.78;17.45;;;;;;;-3.07;89.01;101869.63;4923343;29;20039;-76
2021/01/17 03:21:59;;;;;;;30.55;16.20;;;;;;;-3.17;89.53;101859.53;4956251;28;20742;-77
2021/01/17 03:24:25;;;;;;;35.17;17.73;;;;;;;-3.14;89.49;101862.06;4936245;29;20039;-77
2021/01/17 03:26:51;;;;;;;35.10;17.27;;;;;;;-3.10;88.97;101857.69;4932818;28;20032;-77
2021/01/17 03:29:17;;;;;;;35.50;17.80;;;;;;;-3.11;89.34;101860.28;4958719;28;20489;-79
2021/01/17 03:31:43;;;;;;;31.98;16.65;;;;;;;-3.17;89.69;101849.25;4957916;28;20042;-76
2021/01/17 03:34:08;;;;;;;36.15;17.52;;;;;;;-3.03;88.67;101861.84;4964975;28;20031;-78
2021/01/17 03:36:34;;;;;;;35.13;17.08;;;;;;;-3.11;88.57;101853.44;4958745;28;20039;-77
2021/01/17 03:38:59;;;;;;;36.55;17.92;;;;;;;-3.14;89.06;101854.34;4941108;29;20477;-76
2021/01/17 03:41:25;;;;;;;36.88;18.08;;;;;;;-3.11;89.50;101858.56;4960631;28;20035;-78
2021/01/17 03:43:51;;;;;;;33.55;17.38;;;;;;;-3.16;89.58;101853.53;4939381;28;20110;-79
2021/01/17 03:46:17;;;;;;;37.05;17.85;;;;;;;-3.13;89.62;101856.06;4932693;28;20027;-78
2021/01/17 03:48:43;;;;;;;36.28;17.90;;;;;;;-3.15;90.09;101862.06;4959438;28;20038;-76
2021/01/17 03:51:08;;;;;;;36.42;17.65;;;;;;;-3.13;90.06;101853.50;4941435;28;20124;-75
2021/01/17 03:53:34;;;;;;;38.97;19.00;;;;;;;-3.14;89.89;101849.22;4928369;29;20111;-79
2021/01/17 03:55:59;;;;;;;37.85;18.00;;;;;;;-3.16;89.74;101845.84;4931874;28;20046;-79
2021/01/17 03:58:25;;;;;;;32.22;16.40;;;;;;;-3.17;89.84;101841.56;4975368;28;20504;-80
2021/01/17 04:00:50;;;;;;;35.33;18.23;;;;;;;-3.15;89.97;101844.94;4972145;28;20039;-76
2021/01/17 04:03:16;;;;;;;35.50;17.75;;;;;;;-3.19;89.58;101838.19;4940666;29;20447;-79
2021/01/17 04:05:41;;;;;;;35.70;18.15;;;;;;;-3.19;89.72;101838.19;4928237;29;20429;-76
2021/01/17 04:08:07;;;;;;;32.85;17.27;;;;;;;-3.19;90.11;101845.88;4932945;29;20046;-77
2021/01/17 04:10:33;;;;;;;37.05;17.58;;;;;;;-3.09;89.91;101846.53;4946645;28;20125;-75
2021/01/17 04:12:58;;;;;;;35.63;17.38;;;;;;;-3.15;89.82;101836.41;4936670;28;20039;-76
2021/01/17 04:15:24;;;;;;;36.67;17.65;;;;;;;-3.18;90.01;101833.94;4954019;28;20134;-76
2021/01/17 04:17:49;;;;;;;34.35;18.50;;;;;;;-3.19;89.79;101829.66;4956928;28;20031;-76
2021/01/17 04:20:15;;;;;;;40.85;18.50;;;;;;;-3.24;90.72;101842.59;4957415;29;20043;-76
2021/01/17 04:22:41;;;;;;;35.42;18.55;;;;;;;-3.20;90.46;101835.66;4957224;28;20050;-77
2021/01/17 04:25:07;;;;;;;35.92;17.42;;;;;;;-3.20;90.29;101841.66;4933017;28;20042;-75
2021/01/17 04:27:33;;;;;;;38.33;18.27;;;;;;;-3.15;90.35;101838.97;4962154;28;20046;-76
2021/01/17 04:29:58;;;;;;;37.42;18.65;;;;;;;-3.27;89.78;101818.72;4945890;28;20497;-76
2021/01/17 04:32:24;;;;;;;36.03;18.50;;;;;;;-3.23;90.11;101834.00;4933290;28;20039;-76
2021/01/17 04:34:50;;;;;;;40.50;19.38;;;;;;;-3.20;90.20;101840.78;4966738;28;20094;-77
2021/01/17 04:37:25;;;;;;;38.75;18.92;;;;;;;-3.21;90.26;101847.66;4936974;29;20441;-76
2021/01/17 04:39:51;;;;;;;40.95;19.70;;;;;;;-3.20;90.26;101846.78;4959384;28;20045;-76
2021/01/17 04:42:19;;;;;;;41.85;19.67;;;;;;;-3.25;90.57;101848.59;4949571;29;20039;-76
2021/01/17 04:45:01;;;;;;;40.00;19.23;;;;;;;-3.23;90.29;101846.84;4964698;28;20023;-78
2021/01/17 04:47:27;;;;;;;36.67;18.85;;;;;;;-3.26;90.25;101844.31;4961023;28;20126;-78
2021/01/17 04:49:56;;;;;;;38.88;19.02;;;;;;;-3.26;90.35;101841.75;4974385;28;20041;-78
2021/01/17 04:52:28;;;;;;;38.25;19.13;;;;;;;-3.24;90.26;101850.28;4948925;29;20035;-77
2021/01/17 04:54:54;;;;;;;36.95;18.42;;;;;;;-3.27;90.37;101850.34;4940285;29;20039;-76
2021/01/17 04:57:28;;;;;;;42.42;20.60;;;;;;;-3.25;90.49;101851.16;4940231;29;20038;-77
2021/01/17 05:00:11;;;;;;;42.13;19.80;;;;;;;-3.27;90.43;101850.34;4936024;29;20074;-75
2021/01/17 05:02:40;;;;;;;;;;;;;;;-3.33;90.81;101847.91;4955773;29;20081;-77
2021/01/17 05:05:15;;;;;;;37.92;18.35;;;;;;;-3.29;90.55;101859.78;4951584;29;19922;-78
2021/01/17 05:07:49;;;;;;;36.22;18.30;;;;;;;-3.29;90.82;101853.81;4942053;29;20054;-76
2021/01/17 05:10:33;;;;;;;41.83;20.08;;;;;;;-3.26;90.43;101846.03;4957031;29;20047;-77
2021/01/17 05:13:06;;;;;;;38.90;19.08;;;;;;;-3.33;90.40;101853.88;4938777;28;20043;-76
2021/01/17 05:15:38;;;;;;;40.83;19.02;;;;;;;-3.30;90.45;101849.56;4952367;29;20501;-77
2021/01/17 05:18:04;;;;;;;40.37;19.60;;;;;;;-3.36;90.62;101851.34;4958760;28;20096;-77
2021/01/17 05:20:30;;;;;;;40.13;18.35;;;;;;;-3.37;91.14;101853.94;4959265;28;20309;-76
2021/01/17 05:22:57;;;;;;;41.88;20.17;;;;;;;-3.36;90.87;101858.22;4959457;28;20038;-77
2021/01/17 05:25:27;;;;;;;40.65;19.33;;;;;;;-3.37;91.16;101864.22;4975532;28;20212;-77
2021/01/17 05:27:53;;;;;;;38.97;19.10;;;;;;;-3.40;91.57;101860.00;4963527;28;20035;-77
2021/01/17 05:30:19;;;;;;;45.97;21.45;;;;;;;-3.34;90.99;101864.16;4946608;28;20047;-75
2021/01/17 05:32:53;;;;;;;41.65;19.95;;;;;;;-3.36;90.76;101868.47;4955813;28;517153;-78
2021/01/17 05:35:21;;;;;;;39.00;19.30;;;;;;;-3.33;90.54;101871.00;4954416;28;20032;-78
2021/01/17 05:37:52;;;;;;;48.63;20.60;;;;;;;-3.43;90.49;101848.94;4956406;29;20039;-77
2021/01/17 05:40:18;;;;;;;41.10;19.95;;;;;;;-3.36;90.55;101865.91;4942788;29;20117;-78
2021/01/17 05:42:45;;;;;;;42.08;20.40;;;;;;;-3.40;90.67;101861.72;4945713;29;20040;-77
2021/01/17 05:45:12;;;;;;;40.45;18.77;;;;;;;-3.49;91.03;101867.03;4936595;28;20070;-76
2021/01/17 05:47:39;;;;;;;41.25;19.95;;;;;;;-3.52;91.03;101876.47;4946878;29;20039;-77
2021/01/17 05:50:11;;;;;;;43.95;21.02;;;;;;;-3.54;91.50;101872.25;4960431;28;20046;-76
2021/01/17 05:52:37;;;;;;;39.35;19.80;;;;;;;-3.58;91.56;101871.47;4958665;28;20070;-76
2021/01/17 05:55:04;;;;;;;45.22;21.80;;;;;;;-3.59;91.62;101881.75;4947329;29;20109;-76
2021/01/17 05:57:31;;;;;;;42.50;20.80;;;;;;;-3.60;91.61;101874.91;4934629;29;20047;-79
2021/01/17 05:59:59;;;;;;;44.25;21.30;;;;;;;-3.57;91.42;101880.84;4937891;29;20046;-79
2021/01/17 06:02:24;;;;;;;52.55;22.27;;;;;;;-3.50;91.51;101873.00;4950001;29;20042;-78
2021/01/17 06:04:59;;;;;;;44.65;20.38;;;;;;;-3.53;91.43;101881.63;4962651;28;20043;-78
2021/01/17 06:07:26;;;;;;;45.90;21.40;;;;;;;-3.59;91.66;101881.75;4925719;28;20134;-78
2021/01/17 06:09:56;;;;;;;43.58;21.13;;;;;;;-3.59;91.56;101880.03;4923785;29;20039;-76
2021/01/17 06:12:29;;;;;;;41.50;20.55;;;;;;;-3.50;91.38;101883.28;4954628;28;20038;-79
2021/01/17 06:15:00;;;;;;;;;;;;;;;-3.59;91.83;101885.16;4970292;28;20058;-76
2021/01/17 06:17:26;;;;;;;41.40;18.48;;;;;;;-3.64;91.50;101883.53;4933435;29;19962;-80
2021/01/17 06:19:53;;;;;;;39.17;19.95;;;;;;;-3.63;91.29;101878.38;4921658;29;20434;-78
2021/01/17 06:22:23;;;;;;;42.15;20.80;;;;;;;-3.62;92.04;101884.34;4951425;29;20031;-75
2021/01/17 06:24:58;;;;;;;53.33;21.83;;;;;;;-3.75;92.01;101876.91;4936374;29;20548;-77
2021/01/17 06:27:26;;;;;;;43.63;21.23;;;;;;;-3.68;92.57;101884.47;4935638;29;20043;-77
2021/01/17 06:29:52;;;;;;;40.88;19.35;;;;;;;-3.72;92.56;101881.13;4952671;28;20074;-77
2021/01/17 06:32:30;;;;;;;42.22;20.27;;;;;;;-3.72;92.42;101884.50;4924226;29;20047;-75
2021/01/17 06:34:58;;;;;;;43.88;20.52;;;;;;;-3.68;92.54;101889.59;4953312;28;20412;-79
2021/01/17 06:37:26;;;;;;;42.60;20.65;;;;;;;-3.73;92.76;101881.97;4943008;29;20047;-76
2021/01/17 06:39:52;;;;;;;43.47;21.65;;;;;;;-3.60;92.50;101888.59;4937500;29;20162;-76
2021/01/17 06:42:20;;;;;;;39.63;19.88;;;;;;;-3.59;92.25;101894.56;4938739;29;20046;-76
2021/01/17 06:44:48;;;;;;;39.05;19.52;;;;;;;-3.59;92.74;101890.28;4956702;28;20082;-76
2021/01/17 06:47:35;;;;;;;41.22;20.42;;;;;;;-3.52;91.77;101886.72;4933899;28;20472;-76
2021/01/17 06:50:01;;;;;;;40.05;19.30;;;;;;;-3.52;91.91;101898.72;4962222;28;20046;-76
2021/01/17 06:52:26;;;;;;;43.63;20.70;;;;;;;-3.49;91.68;101890.13;4931932;29;20047;-78
2021/01/17 06:54:53;;;;;;;43.97;21.92;;;;;;;-3.52;91.71;101885.91;4927146;29;20531;-76
2021/01/17 06:57:20;;;;;;;48.75;21.92;;;;;;;-3.57;91.97;101895.38;4951261;28;20604;-76
2021/01/17 06:59:50;;;;;;;44.28;21.58;;;;;;;-3.67;92.30;101897.28;4959016;28;20038;-77
2021/01/17 07:02:15;;;;;;;42.80;20.13;;;;;;;-3.67;92.39;101892.16;4947004;29;20043;-79
2021/01/17 07:04:53;;;;;;;43.17;20.75;;;;;;;-3.77;92.26;101890.59;4929798;29;20054;-77
2021/01/17 07:07:42;;;;;;;41.17;20.75;;;;;;;-3.82;92.75;101893.25;4951351;28;20031;-77
2021/01/17 07:10:09;;;;;;;39.17;19.27;;;;;;;-3.85;93.05;101895.03;4952358;29;20196;-77
2021/01/17 07:12:57;;;;;;;40.22;20.15;;;;;;;-3.88;92.94;101902.75;4949663;28;20042;-78
2021/01/17 07:15:34;;;;;;;45.47;20.42;;;;;;;-3.91;92.76;101904.50;4939679;28;20024;-75
2021/01/17 07:18:06;;;;;;;44.40;21.27;;;;;;;-3.89;93.19;101903.63;4943691;29;20043;-75
2021/01/17 07:20:40;;;;;;;40.65;20.02;;;;;;;-3.88;92.79;101906.19;4949190;29;20070;-77
2021/01/17 07:23:07;;;;;;;44.70;20.63;;;;;;;-3.91;93.06;101907.06;4945584;28;20485;-76
2021/01/17 07:25:35;;;;;;;43.15;20.20;;;;;;;-3.98;92.61;101905.47;4931752;29;20095;-78
2021/01/17 07:28:05;;;;;;;45.70;20.33;;;;;;;-4.03;92.87;101901.28;4948959;29;20042;-78
2021/01/17 07:30:52;;;;;;;45.58;21.50;;;;;;;-4.05;92.80;101916.72;4969494;28;20046;-76
2021/01/17 07:33:29;;;;;;;38.75;19.98;;;;;;;-3.98;93.00;101918.28;4950326;28;20073;-78
2021/01/17 07:35:57;;;;;;;40.97;20.60;;;;;;;-4.01;93.06;101904.66;4943693;28;20086;-77
2021/01/17 07:38:25;;;;;;;39.85;19.58;;;;;;;-4.00;92.51;101906.38;4933401;29;20028;-81
2021/01/17 07:41:04;;;;;;;42.72;20.40;;;;;;;-4.01;92.59;101912.34;4927249;29;20055;-76
2021/01/17 07:43:33;;;;;;;44.38;20.38;;;;;;;-3.95;92.39;101915.69;4926268;29;20078;-75
2021/01/17 07:46:05;;;;;;;44.35;20.95;;;;;;;-3.98;92.23;101920.84;4954510;29;20146;-77
2021/01/17 07:48:32;;;;;;;43.75;20.90;;;;;;;-4.02;92.43;101929.44;4942320;28;20035;-80
2021/01/17 07:51:02;;;;;;;45.65;21.65;;;;;;;-3.93;92.44;101937.00;4961777;28;20501;-76
2021/01/17 07:53:36;;;;;;;43.55;20.13;;;;;;;-3.92;92.12;101935.28;4949339;28;20040;-76
2021/01/17 07:56:27;;;;;;;47.28;20.42;;;;;;;-3.99;92.33;101938.84;4949912;29;20071;-77
2021/01/17 07:58:59;;;;;;;49.45;21.45;;;;;;;-3.98;92.32;101936.22;4952647;28;20678;-78
2021/01/17 08:01:30;;;;;;;47.47;21.05;;;;;;;-3.93;91.86;101948.97;4944685;29;20058;-80
2021/01/17 08:04:05;;;;;;;48.22;21.95;;;;;;;-3.95;92.54;101945.59;4957348;28;20138;-78
2021/01/17 08:06:34;;;;;;;44.72;19.20;;;;;;;-3.97;92.33;101947.34;4964719;28;20035;-76
2021/01/17 08:09:00;;;;;;;46.50;20.05;;;;;;;-3.96;92.48;101946.44;4942011;29;20047;-79
2021/01/17 08:11:44;;;;;;;43.20;20.40;;;;;;;-3.96;92.45;101949.03;4946822;28;20544;-78
2021/01/17 08:14:20;;;;;;;47.13;20.60;;;;;;;-3.86;92.45;101948.03;4941150;29;20032;-77
2021/01/17 08:17:09;;;;;;;48.30;21.42;;;;;;;-3.85;92.29;101959.13;4964985;28;20509;-77
2021/01/17 08:19:44;;;;;;;45.90;20.92;;;;;;;-3.85;92.19;101954.81;4930044;29;20044;-76
2021/01/17 08:22:30;;;;;;;52.15;20.75;;;;;;;-3.75;91.39;101960.66;4944219;28;20037;-79
2021/01/17 08:24:57;;;;;;;44.85;19.83;;;;;;;-3.78;91.19;101966.69;4938344;29;20067;-80
2021/01/17 08:30:00;;;;;;;47.95;20.05;;;;;;;-3.63;90.97;101969.88;4938069;29;20142;-77
2021/01/17 08:32:34;;;;;;;46.72;23.15;;;;;;;-3.68;91.81;101967.38;4932235;28;20050;-78
2021/01/17 08:35:15;;;;;;;45.63;20.65;;;;;;;-3.61;91.66;101979.22;4953650;28;20042;-79
2021/01/17 08:37:42;;;;;;;41.13;19.63;;;;;;;-3.53;91.40;101979.09;4950103;28;20109;-78
2021/01/17 08:40:09;;;;;;;43.90;21.33;;;;;;;-3.58;90.63;101979.19;4922562;29;20031;-80
2021/01/17 08:42:37;;;;;;;41.50;21.08;;;;;;;-3.59;90.53;101972.34;4940675;29;20098;-78
2021/01/17 08:45:18;;;;;;;40.80;20.13;;;;;;;-3.46;90.96;101985.81;4950920;29;20043;-77
2021/01/17 08:47:45;;;;;;;39.15;19.73;;;;;;;-3.47;90.51;101991.81;4951032;29;20043;-79
2021/01/17 08:50:32;;;;;;;42.70;20.00;;;;;;;-3.47;90.45;101991.81;4942762;28;20143;-77
2021/01/17 08:53:23;;;;;;;48.67;21.48;;;;;;;-3.40;90.77;101997.69;4955267;28;20077;-78
2021/01/17 08:55:50;;;;;;;41.42;19.67;;;;;;;-3.41;90.53;102002.00;4939063;29;20110;-77
2021/01/17 08:58:28;;;;;;;43.30;19.77;;;;;;;-3.38;89.48;102012.19;4925081;28;20050;-78
2021/01/17 09:00:57;;;;;;;41.92;20.02;;;;;;;-3.38;90.31;102019.03;4938309;29;20047;-77
2021/01/17 09:03:23;;;;;;;38.75;18.98;;;;;;;-3.35;89.84;102019.00;4950529;28;20039;-78
2021/01/17 09:05:50;;;;;;;41.35;19.60;;;;;;;-3.33;89.98;102018.09;4942109;29;20047;-79
2021/01/17 09:08:17;;;;;;;43.85;19.63;;;;;;;-3.33;90.04;102015.53;4934976;29;20071;-77
2021/01/17 09:10:43;;;;;;;40.35;20.45;;;;;;;-3.34;89.79;102021.50;4935668;29;20031;-77
2021/01/17 09:13:19;;;;;;;38.97;18.95;;;;;;;-3.29;90.13;102030.88;4920054;28;20046;-79
2021/01/17 09:16:09;;;;;;;41.30;19.90;;;;;;;-3.27;90.11;102024.84;4954836;28;20031;-75
2021/01/17 09:18:37;;;;;;;40.38;20.15;;;;;;;-3.23;89.94;102031.59;4935015;29;20090;-78
2021/01/17 09:21:06;;;;;;;43.53;20.98;;;;;;;-3.23;89.71;102036.75;4950659;29;20101;-78
2021/01/17 09:23:39;;;;;;;45.08;20.90;;;;;;;-3.20;89.78;102035.81;4926983;29;20457;-76
2021/01/17 09:26:06;;;;;;;45.58;20.92;;;;;;;-3.13;89.14;102040.00;4953825;28;20142;-77
2021/01/17 09:28:32;;;;;;;47.60;22.50;;;;;;;-3.11;89.21;102045.09;4924255;29;20054;-78
2021/01/17 09:31:00;;;;;;;43.70;21.00;;;;;;;-3.11;89.17;102045.09;4966362;28;20517;-79
2021/01/17 09:33:31;;;;;;;41.03;20.05;;;;;;;-3.11;89.08;102045.94;4929443;29;20144;-78
2021/01/17 09:35:56;;;;;;;42.22;20.42;;;;;;;-3.09;88.68;102061.31;4928059;29;20360;-78
2021/01/17 09:38:24;;;;;;;38.55;19.10;;;;;;;-3.08;88.92;102051.03;4920404;29;20035;-78
2021/01/17 09:40:52;;;;;;;42.17;20.67;;;;;;;-3.01;88.72;102055.19;4939719;29;20121;-79
2021/01/17 09:43:18;;;;;;;39.17;20.25;;;;;;;-3.02;88.62;102055.22;4929547;28;20130;-78
2021/01/17 09:45:51;;;;;;;38.15;19.67;;;;;;;-2.88;88.84;102072.94;4926743;29;20028;-79
2021/01/17 09:48:21;;;;;;;42.72;20.33;;;;;;;-2.83;87.88;102068.56;4918728;29;20090;-79
2021/01/17 09:50:48;;;;;;;36.70;17.50;;;;;;;-2.86;88.67;102077.19;4927378;29;20050;-79
2021/01/17 09:53:14;;;;;;;36.63;19.15;;;;;;;-2.78;88.50;102065.03;4941270;28;20764;-79
2021/01/17 09:55:41;;;;;;;39.38;19.40;;;;;;;-2.77;88.16;102069.31;4921834;29;20040;-78
2021/01/17 09:58:08;;;;;;;35.83;18.27;;;;;;;-2.72;87.91;102074.34;4927546;28;20086;-78
2021/01/17 10:00:34;;;;;;;38.50;18.80;;;;;;;-2.78;87.65;102059.91;4952171;28;20168;-77
2021/01/17 10:03:07;;;;;;;47.15;20.77;;;;;;;-2.72;87.65;102060.66;4935350;29;20519;-80
2021/01/17 10:05:35;;;;;;;38.47;19.65;;;;;;;-2.70;87.63;102067.47;4932664;29;20119;-77
2021/01/17 10:08:19;;;;;;;43.58;19.88;;;;;;;-2.64;87.55;102069.06;4935138;29;20043;-77
2021/01/17 10:10:46;;;;;;;42.38;19.85;;;;;;;-2.64;86.82;102066.50;4950568;29;20047;-78
2021/01/17 10:13:12;;;;;;;40.15;19.38;;;;;;;-2.60;86.63;102060.41;4946553;28;20038;-75
2021/01/17 10:15:41;;;;;;;42.55;20.88;;;;;;;-2.60;87.26;102058.72;4951082;28;20040;-75
2021/01/17 10:18:09;;;;;;;40.65;19.92;;;;;;;-2.53;86.98;102054.28;4952793;29;20086;-78
2021/01/17 10:20:38;;;;;;;46.92;22.10;;;;;;;-2.46;86.13;102055.88;4946718;28;20080;-78
2021/01/17 10:23:13;;;;;;;43.92;22.40;;;;;;;-2.47;86.14;102055.91;4951068;28;20030;-77
2021/01/17 10:25:39;;;;;;;39.35;17.83;;;;;;;-2.38;86.11;102064.25;4969378;28;20035;-78
2021/01/17 10:28:06;;;;;;;35.13;18.30;;;;;;;-2.37;85.64;102063.41;4953161;28;20054;-77
2021/01/17 10:30:35;;;;;;;53.10;23.75;;;;;;;-2.32;85.88;102062.44;4975067;28;20477;-76
2021/01/17 10:33:06;;;;;;;36.25;18.40;;;;;;;-2.25;85.56;102056.31;4953966;28;20047;-77
2021/01/17 10:35:58;;;;;;;77.82;31.65;;;;;;;-2.20;85.57;102057.06;4951480;28;20122;-77
2021/01/17 10:38:23;;;;;;;60.80;27.42;;;;;;;-2.18;84.45;102052.75;4953775;28;20505;-76
2021/01/17 10:40:49;;;;;;;40.78;19.70;;;;;;;-2.21;84.89;102051.06;4952768;28;20042;-76
2021/01/17 10:43:30;;;;;;;51.90;26.80;;;;;;;-2.26;84.71;102045.19;4957417;28;20035;-78
2021/01/17 10:46:07;;;;;;;46.78;22.10;;;;;;;-2.22;84.77;102049.38;4939966;29;20090;-78
2021/01/17 10:48:38;;;;;;;39.58;19.95;;;;;;;-2.19;84.32;102043.31;4963606;28;20030;-76
2021/01/17 10:51:08;;;;;;;35.00;18.35;;;;;;;-2.17;84.17;102056.97;4935152;28;20046;-78
2021/01/17 10:53:46;;;;;;;41.65;21.30;;;;;;;-2.17;84.44;102057.84;4952650;28;20521;-78
2021/01/17 10:56:15;;;;;;;31.70;16.15;;;;;;;-2.09;83.82;102056.81;4933367;28;20030;-78
2021/01/17 10:58:42;;;;;;;41.45;19.17;;;;;;;-2.07;83.65;102062.78;4940582;28;20034;-77
2021/01/17 11:01:08;;;;;;;34.30;17.23;;;;;;;-2.08;82.92;102053.38;4960810;28;20035;-78
2021/01/17 11:03:35;;;;;;;33.13;17.33;;;;;;;-2.09;83.08;102056.81;4939970;29;20035;-76
2021/01/17 11:06:15;;;;;;;37.50;18.25;;;;;;;-2.06;83.24;102057.59;4936925;29;20040;-78
2021/01/17 11:08:56;;;;;;;36.17;17.40;;;;;;;-1.99;83.41;102064.31;4926603;29;20035;-78
2021/01/17 11:11:28;;;;;;;39.90;20.10;;;;;;;-1.95;82.95;102065.09;4910651;29;20038;-78
2021/01/17 11:14:05;;;;;;;39.63;19.80;;;;;;;-1.92;83.06;102053.88;4934567;29;20047;-78
2021/01/17 11:16:33;;;;;;;36.83;18.23;;;;;;;-1.84;83.51;102055.41;4935804;29;20383;-78
2021/01/17 11:18:58;;;;;;;37.67;18.73;;;;;;;-1.79;82.63;102055.28;4945878;29;20051;-78
2021/01/17 11:21:25;;;;;;;37.55;18.92;;;;;;;-1.77;82.84;102054.41;4935846;29;20552;-77
2021/01/17 11:23:52;;;;;;;32.80;18.95;;;;;;;-1.75;83.29;102056.94;4949071;28;20039;-78